createdAt,value
2022-10-05T00:01:29.799Z,101803.97
2022-10-05T00:04:07.430Z,101828.75
2022-10-05T00:06:35.751Z,101823.44
2022-10-05T00:09:11.818Z,101841.13
2022-10-05T00:11:42.032Z,101813.72
2022-10-05T00:14:18.538Z,101797.81
2022-10-05T00:16:47.275Z,101829.69
2022-10-05T00:19:24.694Z,101796.97
2022-10-05T00:21:53.042Z,101825.22
2022-10-05T00:24:21.964Z,101827.88
2022-10-05T00:26:57.057Z,101829.53
2022-10-05T00:29:26.485Z,101671.41
2022-10-05T00:31:54.852Z,101820.72
2022-10-05T00:34:24.109Z,101826.03
2022-10-05T00:36:52.390Z,101773.00
2022-10-05T00:39:20.813Z,101824.25
2022-10-05T00:42:10.997Z,101815.41
2022-10-05T00:44:46.890Z,101818.06
2022-10-05T00:47:38.086Z,101814.53
2022-10-05T00:50:38.504Z,101782.75
2022-10-05T00:53:18.233Z,101732.41
2022-10-05T00:55:58.681Z,101812.75
2022-10-05T00:58:46.164Z,101771.19
2022-10-05T01:01:17.738Z,101790.69
2022-10-05T01:03:59.247Z,101807.47
2022-10-05T01:06:38.263Z,101729.66
2022-10-05T01:09:19.424Z,101795.06
2022-10-05T01:11:56.114Z,101795.09
2022-10-05T01:14:33.522Z,101756.22
2022-10-05T01:17:10.280Z,101769.50
2022-10-05T01:20:04.163Z,101772.16
2022-10-05T01:22:55.319Z,101763.34
2022-10-05T01:25:31.579Z,101782.78
2022-10-05T01:28:05.322Z,101763.38
2022-10-05T01:30:44.120Z,101738.66
2022-10-05T01:33:24.218Z,101730.69
2022-10-05T01:36:01.115Z,101732.41
2022-10-05T01:38:46.259Z,101756.31
2022-10-05T01:41:26.974Z,101754.53
2022-10-05T01:44:01.099Z,101760.69
2022-10-05T01:46:37.365Z,101751.88
2022-10-05T01:49:29.674Z,101749.19
2022-10-05T01:52:17.812Z,101714.75
2022-10-05T01:55:03.039Z,101718.25
2022-10-05T01:57:45.045Z,101743.06
2022-10-05T02:00:17.960Z,101747.44
2022-10-05T02:02:52.022Z,101715.66
2022-10-05T02:05:25.617Z,101709.38
2022-10-05T02:07:59.736Z,101720.06
2022-10-05T02:10:34.329Z,101735.91
2022-10-05T02:13:10.598Z,101703.22
2022-10-05T02:15:46.572Z,101687.38
2022-10-05T02:18:22.173Z,101720.88
2022-10-05T02:20:53.945Z,101715.59
2022-10-05T02:23:28.055Z,101681.09
2022-10-05T02:26:01.918Z,101688.09
2022-10-05T02:28:37.320Z,101701.34
2022-10-05T02:31:12.522Z,101670.41
2022-10-05T02:33:40.998Z,101697.03
2022-10-05T02:36:19.188Z,101693.56
2022-10-05T02:39:06.897Z,101686.44
2022-10-05T02:41:49.405Z,101674.09
2022-10-05T02:44:29.689Z,101674.97
2022-10-05T02:47:06.561Z,101682.81
2022-10-05T02:49:46.248Z,101663.34
2022-10-05T02:52:24.244Z,101647.53
2022-10-05T02:55:03.353Z,101675.81
2022-10-05T02:57:39.597Z,101670.59
2022-10-05T03:00:14.164Z,101682.03
2022-10-05T03:02:51.111Z,101629.13
2022-10-05T03:05:26.326Z,101540.81
2022-10-05T03:08:04.568Z,101647.63
2022-10-05T03:10:41.737Z,101659.97
2022-10-05T03:13:22.580Z,101662.59
2022-10-05T03:16:07.036Z,101668.78
2022-10-05T03:18:54.639Z,101635.28
2022-10-05T03:21:45.040Z,101647.56
2022-10-05T03:24:45.951Z,101659.94
2022-10-05T03:27:29.739Z,101659.06
2022-10-05T03:30:09.177Z,101656.44
2022-10-05T03:32:52.159Z,101635.19
2022-10-05T03:35:31.109Z,101660.88
2022-10-05T03:38:10.500Z,101662.63
2022-10-05T03:40:46.353Z,101656.53
2022-10-05T03:43:51.494Z,101658.25
2022-10-05T03:46:32.525Z,101655.63
2022-10-05T03:49:10.627Z,101633.59
2022-10-05T03:51:44.845Z,101652.22
2022-10-05T03:54:21.810Z,101653.13
2022-10-05T03:56:55.853Z,101655.72
2022-10-05T03:59:33.644Z,101652.09
2022-10-05T04:02:08.979Z,101633.53
2022-10-05T04:04:43.873Z,101641.50
2022-10-05T04:07:31.682Z,101629.22
2022-10-05T04:10:04.326Z,101638.91
2022-10-05T04:12:39.703Z,101575.38
2022-10-05T04:15:20.535Z,101631.84
2022-10-05T04:17:54.053Z,101599.22
2022-10-05T04:20:28.108Z,101628.28
2022-10-05T04:23:06.334Z,101615.88
2022-10-05T04:25:45.636Z,101603.56
2022-10-05T04:28:26.037Z,101602.72
2022-10-05T04:30:56.780Z,101544.47
2022-10-05T04:33:25.461Z,101574.47
2022-10-05T04:36:23.235Z,101623.91
2022-10-05T04:39:06.330Z,101610.63
2022-10-05T04:41:54.512Z,101621.31
2022-10-05T04:44:44.581Z,101585.16
2022-10-05T04:47:35.327Z,101574.56
2022-10-05T04:50:23.029Z,101567.53
2022-10-05T04:53:14.747Z,101604.59
2022-10-05T04:55:55.648Z,101560.41
2022-10-05T04:58:42.638Z,101602.75
2022-10-05T05:01:33.105Z,101608.94
2022-10-05T05:04:29.048Z,101601.88
2022-10-05T05:07:11.315Z,101604.53
2022-10-05T05:10:34.613Z,101592.22
2022-10-05T05:13:20.085Z,101562.19
2022-10-05T05:15:59.715Z,101501.41
2022-10-05T05:18:56.161Z,101583.41
2022-10-05T05:21:42.900Z,101579.81
2022-10-05T05:24:22.495Z,101579.84
2022-10-05T05:27:20.379Z,101552.53
2022-10-05T05:30:02.551Z,101570.16
2022-10-05T05:32:45.273Z,101512.88
2022-10-05T05:35:44.060Z,101541.94
2022-10-05T05:38:30.116Z,101581.63
2022-10-05T05:41:10.263Z,101542.00
2022-10-05T05:43:58.922Z,101572.03
2022-10-05T05:47:01.883Z,101545.47
2022-10-05T05:49:37.484Z,101552.56
2022-10-05T05:52:16.960Z,101579.00
2022-10-05T05:54:54.643Z,101570.22
2022-10-05T05:57:29.977Z,101547.28
2022-10-05T06:00:09.290Z,101554.28
2022-10-05T06:02:59.751Z,101537.50
2022-10-05T06:05:35.337Z,101547.25
2022-10-05T06:08:16.858Z,101583.38
2022-10-05T06:10:54.145Z,101534.91
2022-10-05T06:13:29.779Z,101583.41
2022-10-05T06:16:05.813Z,101551.69
2022-10-05T06:18:38.153Z,101563.13
2022-10-05T06:21:16.884Z,101586.06
2022-10-05T06:23:53.614Z,101546.41
2022-10-05T06:26:47.477Z,101583.41
2022-10-05T06:29:23.938Z,101576.41
2022-10-05T06:32:07.314Z,101567.50
2022-10-05T06:34:54.776Z,101587.81
2022-10-05T06:37:38.162Z,101586.06
2022-10-05T06:40:22.630Z,101568.44
2022-10-05T06:43:16.686Z,101592.22
2022-10-05T06:46:11.514Z,101571.06
2022-10-05T06:49:21.050Z,101577.22
2022-10-05T06:52:20.402Z,101593.09
2022-10-05T06:55:05.602Z,101597.59
2022-10-05T06:57:57.748Z,101590.53
2022-10-05T07:00:34.470Z,101594.03
2022-10-05T07:03:15.969Z,101590.47
2022-10-05T07:06:02.446Z,101543.75
2022-10-05T07:09:05.117Z,101556.97
2022-10-05T07:11:58.406Z,101561.38
2022-10-05T07:14:56.269Z,101584.31
2022-10-05T07:17:52.302Z,101593.19
2022-10-05T07:20:31.356Z,101563.19
2022-10-05T07:23:27.918Z,101581.72
2022-10-05T07:26:15.888Z,101549.06
2022-10-05T07:28:50.264Z,101581.72
2022-10-05T07:31:32.234Z,101578.16
2022-10-05T07:34:07.979Z,101598.47
2022-10-05T07:37:00.081Z,101549.06
2022-10-05T07:39:59.164Z,101586.06
2022-10-05T07:42:52.724Z,101580.84
2022-10-05T07:45:32.985Z,101586.13
2022-10-05T07:48:13.956Z,101560.56
2022-10-05T07:50:56.636Z,101587.06
2022-10-05T07:53:31.307Z,101552.66
2022-10-05T07:56:05.877Z,101572.03
2022-10-05T07:58:44.234Z,101552.63
2022-10-05T08:01:19.283Z,101587.03
2022-10-05T08:03:56.812Z,101548.25
2022-10-05T08:06:45.806Z,101582.63
2022-10-05T08:09:34.783Z,101555.28
2022-10-05T08:12:24.237Z,101574.69
2022-10-05T08:15:01.491Z,101556.19
2022-10-05T08:17:45.255Z,101572.06
2022-10-05T08:20:40.391Z,101546.50
2022-10-05T08:23:22.407Z,101550.00
2022-10-05T08:26:04.830Z,101565.00
2022-10-05T08:28:38.379Z,101550.00
2022-10-05T08:31:20.205Z,101561.44
2022-10-05T08:33:59.738Z,101561.44
2022-10-05T08:36:51.547Z,101547.31
2022-10-05T08:39:25.597Z,101551.75
2022-10-05T08:42:28.363Z,101541.16
2022-10-05T08:46:02.496Z,101543.78
2022-10-05T08:49:28.352Z,101543.78
2022-10-05T08:52:25.884Z,101546.41
2022-10-05T08:55:34.872Z,101545.53
2022-10-05T08:58:37.845Z,101510.31
2022-10-05T09:01:19.624Z,101526.97
2022-10-05T09:04:30.088Z,101503.91
2022-10-05T09:07:28.548Z,101524.91
2022-10-05T09:10:45.545Z,101516.94
2022-10-05T09:13:41.996Z,101516.00
2022-10-05T09:16:49.313Z,101521.25
2022-10-05T09:20:07.622Z,101516.69
2022-10-05T09:22:46.184Z,101507.03
2022-10-05T09:25:24.739Z,101478.00
2022-10-05T09:28:00.186Z,101494.75
2022-10-05T09:30:54.422Z,101502.19
2022-10-05T09:34:14.012Z,101496.50
2022-10-05T09:37:44.167Z,101494.91
2022-10-05T09:41:23.304Z,101503.59
2022-10-05T09:44:36.311Z,101490.34
2022-10-05T09:47:41.403Z,101484.91
2022-10-05T09:50:41.859Z,101465.50
2022-10-05T09:53:41.370Z,101483.22
2022-10-05T09:56:35.304Z,101461.84
2022-10-05T09:59:55.683Z,101476.03
2022-10-05T10:02:46.180Z,101431.88
2022-10-05T10:05:44.006Z,101477.47
2022-10-05T10:08:30.652Z,101464.47
2022-10-05T10:11:25.008Z,101463.44
2022-10-05T10:14:25.108Z,101470.69
2022-10-05T10:17:47.648Z,101440.09
2022-10-05T10:20:32.114Z,101461.09
2022-10-05T10:23:20.874Z,101446.22
2022-10-05T10:26:20.642Z,101460.44
2022-10-05T10:29:43.465Z,101454.44
2022-10-05T10:32:54.780Z,101440.03
2022-10-05T10:35:33.745Z,101456.69
2022-10-05T10:38:40.609Z,101447.53
2022-10-05T10:42:07.112Z,101447.41
2022-10-05T10:45:15.353Z,101448.09
2022-10-05T10:47:54.568Z,101428.47
2022-10-05T10:51:07.299Z,101443.34
2022-10-05T10:54:47.139Z,101458.38
2022-10-05T10:57:23.704Z,101443.50
2022-10-05T11:00:25.390Z,101437.13
2022-10-05T11:03:30.989Z,101429.31
2022-10-05T11:06:34.864Z,101420.16
2022-10-05T11:09:39.812Z,101427.06
2022-10-05T11:12:51.775Z,101423.28
2022-10-05T11:16:19.563Z,101426.78
2022-10-05T11:20:03.207Z,101417.19
2022-10-05T11:22:53.051Z,101385.22
2022-10-05T11:25:55.868Z,101424.81
2022-10-05T11:29:11.687Z,101414.78
2022-10-05T11:32:08.806Z,101374.03
2022-10-05T11:35:00.887Z,101411.66
2022-10-05T11:38:00.007Z,101402.69
2022-10-05T11:41:02.222Z,101397.75
2022-10-05T11:44:06.143Z,101371.28
2022-10-05T11:46:44.585Z,101381.50
2022-10-05T11:49:37.234Z,101389.34
2022-10-05T11:52:14.044Z,101369.59
2022-10-05T11:55:16.024Z,101389.88
2022-10-05T11:57:51.446Z,101387.75
2022-10-05T12:00:22.184Z,101372.13
2022-10-05T12:03:48.961Z,101376.84
2022-10-05T12:06:52.411Z,101377.69
2022-10-05T12:10:03.221Z,101357.75
2022-10-05T12:12:40.077Z,101378.38
2022-10-05T12:15:23.443Z,101382.50
2022-10-05T12:18:00.363Z,101374.81
2022-10-05T12:20:40.679Z,101366.78
2022-10-05T12:23:18.879Z,101363.00
2022-10-05T12:25:54.878Z,101263.00
2022-10-05T12:28:34.117Z,101366.81
2022-10-05T12:31:21.403Z,101382.97
2022-10-05T12:34:03.480Z,101305.66
2022-10-05T12:37:03.054Z,101325.63
2022-10-05T12:39:44.330Z,101361.53
2022-10-05T12:42:29.037Z,101352.81
2022-10-05T12:45:23.069Z,101331.25
2022-10-05T12:48:26.590Z,101303.13
2022-10-05T12:51:02.012Z,101332.75
2022-10-05T12:53:49.288Z,101360.78
2022-10-05T12:56:31.981Z,101366.56
2022-10-05T12:59:14.283Z,101337.16
2022-10-05T13:01:50.428Z,101329.59
2022-10-05T13:04:34.066Z,101329.50
2022-10-05T13:10:00.635Z,101369.09
2022-10-05T13:12:39.775Z,101328.25
2022-10-05T13:15:20.089Z,101371.25
2022-10-05T13:18:00.655Z,101337.56
2022-10-05T13:20:36.745Z,101365.41
2022-10-05T13:23:14.621Z,101377.56
2022-10-05T13:25:51.711Z,101367.41
2022-10-05T13:28:27.898Z,101344.06
2022-10-05T13:31:07.512Z,101372.84
2022-10-05T13:33:59.254Z,101354.56
2022-10-05T13:36:40.056Z,101339.22
2022-10-05T13:39:25.658Z,101362.00
2022-10-05T13:42:06.009Z,101366.25
2022-10-05T13:44:43.826Z,101361.88
2022-10-05T13:47:21.355Z,101375.38
2022-10-05T13:49:55.546Z,101370.00
2022-10-05T13:52:48.501Z,101373.63
2022-10-05T13:55:35.001Z,101388.75
2022-10-05T13:58:13.985Z,101360.06
2022-10-05T14:00:51.183Z,101353.03
2022-10-05T14:03:30.752Z,101374.75
2022-10-05T14:06:01.470Z,101385.50
2022-10-05T14:08:33.915Z,101374.22
2022-10-05T14:11:22.889Z,101379.91
2022-10-05T14:13:53.645Z,101344.38
2022-10-05T14:16:25.316Z,101379.97
2022-10-05T14:18:59.018Z,101345.47
2022-10-05T14:21:31.603Z,101356.28
2022-10-05T14:24:42.279Z,101397.97
2022-10-05T14:27:23.228Z,101391.44
2022-10-05T14:30:00.915Z,101394.91
2022-10-05T14:32:35.338Z,101365.03
2022-10-05T14:35:17.639Z,101373.94
2022-10-05T14:37:52.234Z,101401.13
2022-10-05T14:40:31.751Z,101372.19
2022-10-05T14:43:18.120Z,101413.72
2022-10-05T14:46:02.684Z,101378.03
2022-10-05T14:48:42.423Z,101369.38
2022-10-05T14:51:25.356Z,101405.63
2022-10-05T14:53:59.905Z,101389.91
2022-10-05T14:56:46.535Z,101403.06
2022-10-05T14:59:50.392Z,101351.34
2022-10-05T15:03:18.064Z,101392.53
2022-10-05T15:05:51.598Z,101386.88
2022-10-05T15:08:42.020Z,101397.69
2022-10-05T15:11:18.708Z,101408.34
2022-10-05T15:13:48.640Z,101394.16
2022-10-05T15:16:24.920Z,101406.69
2022-10-05T15:19:00.955Z,101394.41
2022-10-05T15:21:45.966Z,101414.63
2022-10-05T15:24:20.915Z,101411.19
2022-10-05T15:26:54.473Z,101404.31
2022-10-05T15:29:54.918Z,101407.84
2022-10-05T15:32:41.683Z,101424.75
2022-10-05T15:35:50.113Z,101409.88
2022-10-05T15:38:25.711Z,101387.69
2022-10-05T15:41:14.849Z,101419.09
2022-10-05T15:43:54.597Z,101392.19
2022-10-05T15:46:34.387Z,101424.84
2022-10-05T15:49:22.957Z,101398.38
2022-10-05T15:52:05.557Z,101430.91
2022-10-05T15:55:26.270Z,101420.31
2022-10-05T15:58:31.386Z,101424.91
2022-10-05T16:01:10.414Z,101411.66
2022-10-05T16:03:52.170Z,101433.84
2022-10-05T16:06:56.815Z,101433.78
2022-10-05T16:09:56.214Z,101445.13
2022-10-05T16:12:44.614Z,101438.91
2022-10-05T16:15:29.469Z,101424.03
2022-10-05T16:18:39.215Z,101452.41
2022-10-05T16:21:20.252Z,101420.72
2022-10-05T16:24:05.853Z,101440.91
2022-10-05T16:26:55.004Z,101446.22
2022-10-05T16:29:38.642Z,101449.69
2022-10-05T16:32:13.871Z,101451.59
2022-10-05T16:35:03.508Z,101461.25
2022-10-05T16:37:43.407Z,101466.66
2022-10-05T16:40:28.541Z,101454.22
2022-10-05T16:43:12.043Z,101457.84
2022-10-05T16:45:59.721Z,101431.53
2022-10-05T16:48:34.946Z,101469.41
2022-10-05T16:51:29.372Z,101464.91
2022-10-05T16:54:11.721Z,101469.25
2022-10-05T16:56:45.891Z,101454.38
2022-10-05T17:00:03.705Z,101424.41
2022-10-05T17:02:56.946Z,101463.16
2022-10-05T17:05:59.452Z,101442.03
2022-10-05T17:09:12.590Z,101449.16
2022-10-05T17:12:02.574Z,101478.19
2022-10-05T17:14:48.561Z,101479.97
2022-10-05T17:17:34.131Z,101446.50
2022-10-05T17:20:49.244Z,101485.25
2022-10-05T17:23:54.991Z,101479.97
2022-10-05T17:26:59.404Z,101483.44
2022-10-05T17:29:42.830Z,101462.22
2022-10-05T17:32:33.546Z,101460.50
2022-10-05T17:35:20.343Z,101437.56
2022-10-05T17:38:17.917Z,101432.41
2022-10-05T17:41:19.764Z,101477.28
2022-10-05T17:44:26.240Z,101498.44
2022-10-05T17:46:59.606Z,101484.34
2022-10-05T17:50:14.067Z,101497.53
2022-10-05T17:53:02.449Z,101490.53
2022-10-05T17:55:46.139Z,101501.16
2022-10-05T17:59:04.536Z,101513.44
2022-10-05T18:01:36.640Z,101523.16
2022-10-05T18:04:42.403Z,101516.06
2022-10-05T18:07:23.792Z,101495.88
2022-10-05T18:10:24.838Z,101511.66
2022-10-05T18:13:34.681Z,101521.34
2022-10-05T18:16:03.296Z,101496.72
2022-10-05T18:18:59.997Z,101523.97
2022-10-05T18:21:59.792Z,101539.00
2022-10-05T18:25:03.539Z,101532.81
2022-10-05T18:28:19.731Z,101549.59
2022-10-05T18:31:18.645Z,101553.06
2022-10-05T18:34:04.361Z,101550.44
2022-10-05T18:36:54.589Z,101533.84
2022-10-05T18:39:46.028Z,101555.06
2022-10-05T18:42:23.778Z,101583.28
2022-10-05T18:44:58.593Z,101591.19
2022-10-05T18:47:37.276Z,101575.31
2022-10-05T18:50:23.892Z,101604.38
2022-10-05T18:53:21.039Z,101607.91
2022-10-05T18:55:58.876Z,101621.13
2022-10-05T18:58:42.168Z,101623.81
2022-10-05T19:01:52.473Z,101626.44
2022-10-05T19:04:35.502Z,101627.28
2022-10-05T19:07:20.465Z,101623.81
2022-10-05T19:10:05.435Z,101640.59
2022-10-05T19:12:49.665Z,101631.78
2022-10-05T19:15:28.260Z,101602.75
2022-10-05T19:18:47.058Z,101680.34
2022-10-05T19:21:29.502Z,101644.22
2022-10-05T19:24:22.066Z,101684.88
2022-10-05T19:27:06.894Z,101691.94
2022-10-05T19:30:01.756Z,101656.69
2022-10-05T19:32:45.977Z,101695.50
2022-10-05T19:35:26.666Z,101706.13
2022-10-05T19:38:16.675Z,101713.22
2022-10-05T19:40:56.453Z,101695.53
2022-10-05T19:43:52.612Z,101734.38
2022-10-05T19:46:38.686Z,101739.69
2022-10-05T19:49:10.928Z,101715.81
2022-10-05T19:51:50.828Z,101744.09
2022-10-05T19:54:28.626Z,101749.38
2022-10-05T19:56:59.845Z,101759.09
2022-10-05T19:59:31.420Z,101730.81
2022-10-05T20:02:00.522Z,101760.78
2022-10-05T20:04:38.296Z,101781.97
2022-10-05T20:07:06.714Z,101776.75
2022-10-05T20:09:53.902Z,101766.09
2022-10-05T20:12:23.989Z,101743.16
2022-10-05T20:15:35.743Z,101802.34
2022-10-05T20:19:06.183Z,101805.88
2022-10-05T20:21:48.322Z,101780.28
2022-10-05T20:24:19.680Z,101778.50
2022-10-05T20:27:06.125Z,101816.47
2022-10-05T20:29:38.187Z,101768.72
2022-10-05T20:32:09.920Z,101828.81
2022-10-05T20:34:41.377Z,101809.34
2022-10-05T20:37:11.471Z,101830.50
2022-10-05T20:39:40.417Z,101860.59
2022-10-05T20:42:14.111Z,101865.88
2022-10-05T20:44:42.511Z,101775.69
2022-10-05T20:47:11.453Z,101871.16
2022-10-05T20:49:41.394Z,101806.63
2022-10-05T20:52:12.285Z,101884.38
2022-10-05T20:54:40.903Z,101887.06
2022-10-05T20:57:11.265Z,101879.88
2022-10-05T20:59:39.792Z,101892.25
2022-10-05T21:02:08.352Z,101905.47
2022-10-05T21:04:43.086Z,101904.53
2022-10-05T21:07:11.506Z,101901.94
2022-10-05T21:09:41.166Z,101873.56
2022-10-05T21:12:11.602Z,101913.25
2022-10-05T21:14:40.782Z,101921.25
2022-10-05T21:17:10.473Z,101874.34
2022-10-05T21:19:40.354Z,101930.13
2022-10-05T21:22:10.837Z,101807.06
2022-10-05T21:24:41.252Z,101890.25
2022-10-05T21:27:11.025Z,101910.59
2022-10-05T21:29:41.201Z,101954.84
2022-10-05T21:32:11.772Z,101934.53
2022-10-05T21:34:40.724Z,101936.25
2022-10-05T21:37:09.701Z,101944.19
2022-10-05T21:39:37.970Z,101964.53
2022-10-05T21:42:06.594Z,101962.66
2022-10-05T21:44:36.675Z,101973.13
2022-10-05T21:47:07.021Z,101987.19
2022-10-05T21:49:37.359Z,101987.88
2022-10-05T21:52:07.048Z,101993.91
2022-10-05T21:54:38.967Z,101967.19
2022-10-05T21:57:07.792Z,102000.69
2022-10-05T21:59:37.537Z,101984.53
2022-10-05T22:02:07.309Z,101974.66
2022-10-05T22:04:35.722Z,102015.34
2022-10-05T22:07:18.118Z,101990.50
2022-10-05T22:09:48.464Z,101973.59
2022-10-05T22:12:17.811Z,102008.13
2022-10-05T22:14:47.450Z,102037.25
2022-10-05T22:17:24.881Z,101969.72
2022-10-05T22:19:53.251Z,102041.50
2022-10-05T22:22:22.226Z,102050.22
2022-10-05T22:24:51.000Z,102055.50
2022-10-05T22:27:20.286Z,102051.03
2022-10-05T22:29:51.390Z,101990.72
2022-10-05T22:32:20.060Z,102064.34
2022-10-05T22:34:48.431Z,102048.38
2022-10-05T22:37:16.734Z,102074.00
2022-10-05T22:39:45.434Z,102082.84
2022-10-05T22:42:13.810Z,102044.66
2022-10-05T22:44:42.281Z,102056.66
2022-10-05T22:47:15.073Z,102100.00
2022-10-05T22:49:44.579Z,102106.09
2022-10-05T22:52:12.921Z,102086.59
2022-10-05T22:54:41.261Z,102059.94
2022-10-05T22:57:09.784Z,102119.91
2022-10-05T22:59:38.441Z,102118.00
2022-10-05T23:02:07.013Z,102117.22
2022-10-05T23:04:36.786Z,102120.66
2022-10-05T23:07:05.835Z,102106.09
2022-10-05T23:09:36.215Z,102140.41
2022-10-05T23:12:04.742Z,102139.75
2022-10-05T23:14:33.286Z,102004.72
2022-10-05T23:17:01.609Z,102153.69
2022-10-05T23:19:30.004Z,102159.00
2022-10-05T23:22:00.213Z,102160.66
2022-10-05T23:24:28.602Z,102077.53
2022-10-05T23:26:57.202Z,102167.03
2022-10-05T23:29:28.710Z,102167.94
2022-10-05T23:31:57.610Z,102170.97
2022-10-05T23:34:27.346Z,102097.19
2022-10-05T23:36:55.777Z,102185.75
2022-10-05T23:39:27.671Z,102197.19
2022-10-05T23:41:56.230Z,102188.38
2022-10-05T23:44:24.752Z,102181.16
2022-10-05T23:46:53.301Z,102206.06
2022-10-05T23:49:21.818Z,102204.22
2022-10-05T23:51:52.753Z,102215.53
2022-10-05T23:54:21.011Z,102215.41
2022-10-05T23:56:50.694Z,102215.13
2022-10-05T23:59:18.945Z,102151.84
